Latest Weather Observations for Rhyll

IDV60801

Issued at 9:35 am EST Saturday 20 September 2014 (issued every 30 minutes, with the page automatically refreshed every 10 minutes)

About weather observations | Map of weather stations | Latest weather observations for VIC | Other Formats
Station Details ID: 086373 Name: RHYLL Lat: -38.46 Lon: 145.31 Height: 13.4 m
Data from the previous 72 hours. | See also: Recent months at Rhyll
Date/Time
EST
Temp
°C
App
Temp
°C
Dew
Point
Rel
Hum
%
Delta-T
°C
Wind Press
QNH
hPa
Press
MSL
hPa
Rain
since 9 am
mm
Dir
 
Spd
km/h
Gust
km/h
Spd
kts
Gust
kts
20/09:30am 13.2 10.5 10.2 82 1.5 S 15 26 8 14 1028.0 1028.0 0.0
20/09:00am 12.2 9.8 9.9 86 1.2 SSW 13 22 7 12 1027.9 1027.9 2.0
20/08:30am 11.3 9.6 10.0 92 0.7 S 9 19 5 10 1027.6 1027.6 2.0
20/08:00am 10.7 7.3 9.1 90 0.8 SSW 17 28 9 15 1027.6 1027.6 1.8
20/07:30am 11.2 7.8 9.1 87 1.0 SW 17 26 9 14 1027.2 1027.2 1.8
20/07:00am 11.0 8.6 8.8 86 1.1 S 11 17 6 9 1026.7 1026.7 1.8
20/06:30am 10.8 7.4 9.1 89 0.8 S 17 28 9 15 1026.4 1026.4 1.8
20/06:00am 10.9 8.8 8.3 84 1.3 SW 9 15 5 8 1026.0 1026.0 1.8
20/05:30am 10.9 8.5 8.7 86 1.1 SSW 11 20 6 11 1025.5 1025.5 1.8
20/05:00am 10.5 8.4 8.4 87 1.0 WSW 9 15 5 8 1025.1 1025.1 1.8
20/04:30am 10.5 8.0 8.1 85 1.2 WSW 11 19 6 10 1024.9 1024.9 1.8
20/04:00am 11.1 9.0 8.3 83 1.4 SW 9 24 5 13 1024.8 1024.8 1.4
20/03:30am 10.9 9.3 7.8 81 1.5 WSW 6 11 3 6 1024.8 1024.8 1.4
20/03:00am 10.9 8.5 7.2 78 1.8 WSW 9 17 5 9 1024.7 1024.7 1.4
20/02:30am 11.2 8.6 7.7 79 1.7 SW 11 17 6 9 1024.8 1024.8 1.4
20/02:00am 10.7 7.8 6.5 75 2.0 SW 11 17 6 9 1024.9 1024.9 1.4
20/01:30am 10.7 8.3 7.0 78 1.8 SW 9 15 5 8 1025.2 1025.2 1.4
20/01:00am 11.0 9.0 7.3 78 1.8 SW 7 11 4 6 1025.2 1025.2 1.4
20/12:30am 11.4 8.8 6.3 71 2.4 SW 9 15 5 8 1025.0 1025.0 1.4
20/12:00am 10.9 8.5 7.2 78 1.8 WSW 9 19 5 10 1024.9 1024.9 1.4
 
Date/Time
EST
Temp
°C
App
Temp
°C
Dew
Point
Rel
Hum
%
Delta-T
°C
Wind Press
QNH
hPa
Press
MSL
hPa
Rain
since 9 am
mm
Dir
 
Spd
km/h
Gust
km/h
Spd
kts
Gust
kts
19/11:30pm 10.7 8.9 7.9 83 1.4 WSW 7 13 4 7 1025.1 1025.1 1.4
19/11:00pm 11.2 8.6 7.7 79 1.7 WSW 11 20 6 11 1025.3 1025.3 1.4
19/10:30pm 11.1 9.3 8.0 81 1.5 WSW 7 11 4 6 1025.4 1025.4 1.4
19/10:00pm 10.8 8.4 7.1 78 1.8 W 9 17 5 9 1025.6 1025.6 1.4
19/09:30pm 11.1 8.3 7.0 76 2.0 WSW 11 19 6 10 1025.5 1025.5 1.4
19/09:00pm 11.6 9.6 7.1 74 2.1 WSW 7 13 4 7 1025.3 1025.3 1.4
19/08:30pm 11.3 8.9 6.8 74 2.1 WSW 9 19 5 10 1025.2 1025.2 1.4
19/08:00pm 11.5 8.7 7.0 74 2.1 WSW 11 19 6 10 1025.2 1025.2 1.4
19/07:30pm 11.4 9.0 6.9 74 2.1 WSW 9 17 5 9 1024.9 1024.9 1.4
19/07:00pm 11.6 8.9 7.3 75 2.1 SW 11 19 6 10 1024.6 1024.6 1.4
19/06:30pm 12.0 9.5 8.1 77 1.9 SW 11 20 6 11 1024.3 1024.3 1.4
19/06:00pm 12.0 9.3 7.3 73 2.3 WSW 11 19 6 10 1024.3 1024.3 1.4
19/05:30pm 12.4 9.4 7.5 72 2.4 SW 13 20 7 11 1024.0 1024.0 1.4
19/05:00pm 13.0 10.0 7.5 69 2.7 SW 13 22 7 12 1023.8 1023.8 1.4
19/04:30pm 13.5 10.2 7.9 69 2.8 SW 15 28 8 15 1023.7 1023.7 1.4
19/04:00pm 13.6 9.7 7.2 65 3.1 SW 17 30 9 16 1023.6 1023.6 1.4
19/03:30pm 13.8 9.5 6.9 63 3.3 SW 19 30 10 16 1023.4 1023.4 1.4
19/03:00pm 13.9 10.0 8.5 70 2.7 SW 19 28 10 15 1023.4 1023.4 1.4
19/02:30pm 13.4 9.7 7.8 69 2.8 SW 17 30 9 16 1023.6 1023.6 1.4
19/02:00pm 13.8 9.7 7.8 67 2.9 SW 19 30 10 16 1023.5 1023.5 1.4
19/01:30pm 14.1 12.0 9.7 75 2.3 SSW 11 22 6 12 1023.7 1023.7 1.4
19/01:00pm 12.9 11.6 10.1 83 1.4 SW 7 17 4 9 1023.9 1023.9 1.4
19/12:30pm 11.9 9.5 8.7 81 1.6 WSW 11 19 6 10 1024.2 1024.2 1.2
19/12:00pm 11.9 9.6 8.9 82 1.5 W 11 17 6 9 1024.2 1024.2 1.2
19/11:30am 13.1 10.3 8.4 73 2.3 SW 13 22 7 12 1024.2 1024.2 1.2
19/11:00am 11.5 7.7 8.9 84 1.3 WSW 19 33 10 18 1024.4 1024.4 1.2
19/10:30am 12.0 9.9 9.9 87 1.1 SW 11 19 6 10 1024.4 1024.4 1.2
19/10:00am 10.8 9.0 9.4 91 0.7 SW 9 15 5 8 1024.6 1024.6 1.2
19/09:30am 10.5 7.9 9.3 92 0.6 SW 13 22 7 12 1024.7 1024.7 0.8
19/09:00am 10.7 9.8 9.3 91 0.7 SW 4 7 2 4 1024.7 1024.7 2.4
19/08:30am 10.7 7.9 8.5 86 1.1 SW 13 19 7 10 1024.5 1024.5 1.6
19/08:00am 10.4 6.5 8.5 88 0.9 SW 19 26 10 14 1024.3 1024.3 1.4
19/07:30am 10.6 9.0 8.2 85 1.2 WNW 6 7 3 4 1024.0 1024.0 1.4
19/07:00am 10.2 8.6 7.8 85 1.1 W 6 9 3 5 1023.7 1023.7 1.4
19/06:30am 10.1 8.4 8.2 88 0.9 WSW 7 13 4 7 1023.5 1023.5 1.4
19/06:00am 10.0 8.0 8.6 91 0.7 WSW 9 19 5 10 1023.4 1023.4 1.4
19/05:30am 9.5 8.0 8.3 92 0.6 NW 6 11 3 6 1023.2 1023.2 1.2
19/05:00am 9.7 8.0 8.5 92 0.6 WNW 7 11 4 6 1023.0 1023.0 1.2
19/04:30am 9.0 7.0 7.1 88 0.9 WNW 7 15 4 8 1023.0 1023.0 1.2
19/04:00am 9.5 7.6 7.6 88 0.9 W 7 15 4 8 1023.0 1023.0 1.2
19/03:30am 9.6 8.0 8.0 90 0.8 NW 6 7 3 4 1022.8 1022.8 1.2
19/03:00am 9.1 6.9 7.7 91 0.7 W 9 13 5 7 1023.0 1023.0 1.2
19/02:30am 9.0 7.2 7.8 92 0.6 W 7 11 4 6 1023.2 1023.2 1.2
19/02:00am 8.7 7.4 7.5 92 0.6 WNW 4 7 2 4 1023.4 1023.4 1.2
19/01:30am 9.3 7.4 7.7 90 0.8 W 7 13 4 7 1023.7 1023.7 1.2
19/01:00am 10.1 8.1 6.4 78 1.7 W 6 9 3 5 1023.8 1023.8 1.0
19/12:30am 9.8 7.6 6.2 78 1.7 W 7 11 4 6 1023.9 1023.9 1.0
19/12:00am 9.8 7.6 5.2 73 2.1 W 6 9 3 5 1024.0 1024.0 1.0
 
Date/Time
EST
Temp
°C
App
Temp
°C
Dew
Point
Rel
Hum
%
Delta-T
°C
Wind Press
QNH
hPa
Press
MSL
hPa
Rain
since 9 am
mm
Dir
 
Spd
km/h
Gust
km/h
Spd
kts
Gust
kts
18/11:30pm 10.5 8.3 5.3 70 2.4 W 6 9 3 5 1024.1 1024.1 1.0
18/11:00pm 10.9 8.6 4.8 66 2.7 WSW 6 11 3 6 1024.4 1024.4 1.0
18/10:30pm 10.7 8.5 5.3 69 2.5 SW 6 13 3 7 1024.4 1024.4 1.0
18/10:00pm 10.8 8.2 4.3 64 2.9 SW 7 13 4 7 1024.4 1024.4 1.0
18/09:30pm 10.4 7.0 3.9 64 2.9 SW 11 17 6 9 1024.4 1024.4 1.0
18/09:00pm 11.1 7.9 5.2 67 2.7 SW 11 22 6 12 1024.3 1024.3 1.0
18/08:30pm 11.3 8.0 6.2 71 2.4 SW 13 24 7 13 1024.0 1024.0 1.0
18/08:00pm 10.9 8.4 5.0 67 2.7 WSW 7 15 4 8 1024.0 1024.0 1.0
18/07:30pm 10.6 7.6 4.1 64 2.9 WSW 9 15 5 8 1023.8 1023.8 1.0
18/07:00pm 10.8 7.0 4.0 63 3.0 SW 13 24 7 13 1023.8 1023.8 1.0
18/06:30pm 10.8 6.9 3.6 61 3.2 WSW 13 24 7 13 1023.6 1023.6 1.0
18/06:00pm 11.1 6.5 3.9 61 3.2 SW 17 26 9 14 1023.3 1023.3 1.0
18/05:30pm 11.3 7.2 4.5 63 3.1 SW 15 24 8 13 1023.0 1023.0 1.0
18/05:00pm 11.9 7.1 4.6 61 3.3 SW 19 30 10 16 1022.8 1022.8 1.0
18/04:30pm 12.4 8.3 6.2 66 2.9 SW 17 30 9 16 1022.6 1022.6 1.0
18/04:00pm 10.5 6.8 7.9 84 1.3 SSW 17 28 9 15 1022.4 1022.4 1.0
18/03:30pm 12.4 8.2 7.5 72 2.4 SSW 19 30 10 16 1022.2 1022.2 1.0
18/03:00pm 12.1 8.0 7.8 75 2.1 SW 19 32 10 17 1022.3 1022.3 1.0
18/02:30pm 12.8 8.3 7.0 68 2.8 SW 20 32 11 17 1022.2 1022.2 0.6
18/02:00pm 12.0 8.2 7.7 75 2.1 SSW 17 33 9 18 1022.2 1022.2 0.6
18/01:30pm 13.1 10.0 7.3 68 2.8 SSW 13 26 7 14 1022.0 1022.0 0.6
18/01:00pm 13.4 9.6 7.4 67 2.9 SW 17 32 9 17 1022.1 1022.1 0.6
18/12:30pm 13.0 8.3 6.1 63 3.3 SW 20 33 11 18 1022.1 1022.1 0.6
18/12:00pm 12.9 8.4 6.9 67 2.9 SW 20 35 11 19 1022.2 1022.2 0.6
18/11:30am 12.0 7.4 6.3 68 2.7 SW 20 35 11 19 1022.2 1022.2 0.6
18/11:00am 12.6 8.4 7.5 71 2.5 SSW 19 32 10 17 1022.2 1022.2 0.6
18/10:30am 11.9 8.8 7.4 74 2.2 SW 13 22 7 12 1022.1 1022.1 0.6
18/10:00am 11.8 7.5 6.9 72 2.3 SSW 19 28 10 15 1022.1 1022.1 0.6
18/09:30am 9.6 6.8 6.9 83 1.3 WSW 11 22 6 12 1022.0 1022.0 0.6
18/09:00am 12.4 9.4 6.0 65 3.0 SW 11 20 6 11 1021.8 1021.8 5.8
18/08:30am 11.1 8.2 6.6 74 2.1 WSW 11 20 6 11 1021.5 1021.5 5.8
18/08:00am 10.5 7.4 5.5 71 2.3 SW 11 19 6 10 1021.2 1021.2 5.8
18/07:30am 9.8 6.3 5.4 74 2.0 WSW 13 24 7 13 1020.8 1020.8 5.8
18/07:00am 10.3 6.6 4.5 67 2.6 SW 13 24 7 13 1020.6 1020.6 5.8
18/06:30am 9.7 5.9 4.1 68 2.5 SW 13 24 7 13 1020.2 1020.2 5.8
18/06:00am 9.4 5.8 5.0 74 2.0 WSW 13 22 7 12 1019.9 1019.9 5.8
18/05:30am 9.9 4.8 3.0 62 3.0 SW 19 30 10 16 1019.4 1019.4 5.8
18/05:00am 10.0 5.6 4.6 69 2.4 SW 17 30 9 16 1019.1 1019.1 5.8
18/04:30am 9.6 5.4 4.0 68 2.5 SW 15 24 8 13 1018.9 1018.9 5.8
18/04:00am 9.5 5.8 4.7 72 2.1 WSW 13 22 7 12 1018.6 1018.6 5.8
18/03:30am 9.9 5.8 4.1 67 2.6 SW 15 28 8 15 1018.4 1018.4 5.8
18/03:00am 10.1 4.7 4.5 68 2.5 SW 22 37 12 20 1018.2 1018.2 5.8
18/02:30am 9.9 5.6 5.3 73 2.1 SW 17 32 9 17 1018.3 1018.3 5.8
18/02:00am 9.0 5.7 6.4 84 1.2 SW 13 20 7 11 1018.4 1018.4 5.8
18/01:30am 8.5 4.8 6.5 87 0.9 WSW 15 30 8 16 1018.5 1018.5 5.8
18/01:00am 9.2 5.6 4.8 74 2.0 W 13 24 7 13 1018.5 1018.5 5.2
18/12:30am 8.9 5.4 5.3 78 1.6 W 13 22 7 12 1018.4 1018.4 5.2
18/12:00am 9.7 6.5 5.3 74 2.0 WSW 11 19 6 10 1018.4 1018.4 5.0
 
Date/Time
EST
Temp
°C
App
Temp
°C
Dew
Point
Rel
Hum
%
Delta-T
°C
Wind Press
QNH
hPa
Press
MSL
hPa
Rain
since 9 am
mm
Dir
 
Spd
km/h
Gust
km/h
Spd
kts
Gust
kts
17/11:30pm 8.7 5.1 5.1 78 1.6 WSW 13 33 7 18 1018.2 1018.2 5.0
17/11:00pm 9.7 6.9 5.1 73 2.1 WSW 9 15 5 8 1018.1 1018.1 4.8
17/10:30pm 9.7 5.6 4.3 69 2.4 W 15 35 8 19 1018.1 1018.1 4.8
17/10:00pm 8.4 5.9 5.0 79 1.5 W 7 11 4 6 1018.0 1018.0 4.8
17/09:30pm 9.0 4.2 4.6 74 1.9 WSW 19 28 10 15 1018.1 1018.1 4.8
17/09:00pm 9.0 5.9 5.6 79 1.5 W 11 20 6 11 1017.6 1017.6 4.8
17/08:30pm 8.3 4.9 5.9 85 1.1 W 13 24 7 13 1017.5 1017.5 4.8
17/08:00pm 8.7 5.3 4.1 73 2.0 WSW 11 20 6 11 1017.2 1017.2 4.0
17/07:30pm 7.9 3.1 4.5 79 1.5 WSW 19 48 10 26 1017.3 1017.3 4.0
17/07:00pm 8.9 6.0 4.7 75 1.9 WSW 9 17 5 9 1016.8 1016.8 3.8
17/06:38pm 8.7 2.2 4.9 77 1.7 SW 28 61 15 33 1016.7 1016.7 3.8
17/06:30pm 9.8 4.9 4.0 67 2.6 WSW 19 61 10 33 1016.5 1016.5 3.8
17/06:00pm 9.8 6.2 4.8 71 2.2 WSW 13 28 7 15 1016.2 1016.2 3.8
17/05:30pm 9.7 4.6 3.9 67 2.5 W 20 43 11 23 1015.8 1015.8 3.8
17/05:00pm 10.9 6.1 4.8 66 2.8 WSW 19 32 10 17 1015.3 1015.3 3.8
17/04:30pm 11.3 6.1 5.6 68 2.6 WSW 22 43 12 23 1015.1 1015.1 3.8
17/04:09pm 10.9 4.5 5.4 69 2.5 SW 28 48 15 26 1014.7 1014.7 3.8
17/04:00pm 12.2 7.3 4.9 61 3.3 WSW 20 39 11 21 1014.4 1014.4 3.8
17/03:38pm 10.8 3.8 4.3 64 2.9 WSW 30 54 16 29 1014.4 1014.4 3.8
17/03:30pm 12.0 6.5 5.9 66 2.9 WSW 24 44 13 24 1014.1 1014.1 3.6
17/03:00pm 10.9 6.0 5.2 68 2.6 WSW 20 41 11 22 1013.9 1013.9 3.6
17/02:30pm 9.9 5.3 6.6 80 1.5 W 20 37 11 20 1013.7 1013.7 3.6
17/02:00pm 10.9 7.1 7.6 80 1.6 WSW 17 32 9 17 1013.6 1013.6 3.4
17/01:30pm 11.2 7.2 9.1 87 1.0 WSW 20 39 11 21 1013.4 1013.4 3.4
17/01:00pm 11.2 6.3 6.9 75 2.0 WSW 22 44 12 24 1013.1 1013.1 2.8
17/12:30pm 13.3 7.9 6.4 63 3.3 WSW 24 44 13 24 1012.7 1012.7 2.8
17/12:00pm 11.0 7.9 8.9 87 1.0 W 15 30 8 16 1012.7 1012.7 2.8
17/11:30am 11.6 8.2 9.0 84 1.3 W 17 33 9 18 1012.7 1012.7 2.4
17/11:00am 10.5 6.5 8.3 86 1.1 W 19 33 10 18 1012.7 1012.7 1.2
17/10:30am 10.0 5.8 7.6 85 1.1 W 19 26 10 14 1012.6 1012.6 1.0
17/10:00am 12.7 9.4 8.2 74 2.2 W 15 33 8 18 1012.4 1012.4 0.0

Other Formats:

Comma delimited format used in spreadsheet applications
http://www.bom.gov.au/fwo/IDV60801/IDV60801.94892.axf

JavaScript Object Notation format (JSON) in row-major order
http://www.bom.gov.au/fwo/IDV60801/IDV60801.94892.json